createdAt,value
2022-08-24T00:00:40.446Z,100256.52
2022-08-24T00:03:13.464Z,100257.41
2022-08-24T00:05:46.159Z,100258.27
2022-08-24T00:08:19.159Z,100260.91
2022-08-24T00:10:51.046Z,100260.02
2022-08-24T00:13:22.879Z,100267.05
2022-08-24T00:15:55.596Z,100261.73
2022-08-24T00:18:27.442Z,100262.59
2022-08-24T00:20:59.344Z,100260.36
2022-08-24T00:23:31.332Z,100262.08
2022-08-24T00:26:03.316Z,100268.71
2022-08-24T00:28:35.780Z,100261.16
2022-08-24T00:31:08.334Z,100265.59
2022-08-24T00:33:41.283Z,100280.22
2022-08-24T00:36:13.276Z,100267.36
2022-08-24T00:38:45.020Z,100275.33
2022-08-24T00:41:17.250Z,100276.21
2022-08-24T00:43:56.311Z,100284.19
2022-08-24T00:46:46.449Z,100279.30
2022-08-24T00:49:29.761Z,100283.70
2022-08-24T00:52:11.278Z,100287.25
2022-08-24T00:54:49.669Z,100280.60
2022-08-24T00:57:23.923Z,100286.80
2022-08-24T01:00:02.045Z,100276.59
2022-08-24T01:02:37.069Z,100280.14
2022-08-24T01:05:09.846Z,100284.16
2022-08-24T01:07:41.915Z,100275.73
2022-08-24T01:10:16.373Z,100277.98
2022-08-24T01:13:00.776Z,100284.64
2022-08-24T01:15:23.175Z,100277.59
2022-08-24T01:18:12.907Z,100282.03
2022-08-24T01:20:46.545Z,100281.18
2022-08-24T01:23:38.376Z,100287.87
2022-08-24T01:26:12.327Z,100284.36
2022-08-24T01:28:47.584Z,100286.59
2022-08-24T01:31:23.359Z,100290.59
2022-08-24T01:33:56.975Z,100293.69
2022-08-24T01:36:40.563Z,100291.04
2022-08-24T01:39:21.164Z,100296.81
2022-08-24T01:41:53.352Z,100295.02
2022-08-24T01:44:27.377Z,100295.94
2022-08-24T01:46:59.075Z,100296.35
2022-08-24T01:49:33.913Z,100294.61
2022-08-24T01:52:07.110Z,100298.59
2022-08-24T01:54:43.487Z,100291.92
2022-08-24T01:57:14.992Z,100299.00
2022-08-24T01:59:48.305Z,100299.02
2022-08-24T02:02:24.113Z,100294.10
2022-08-24T02:04:55.926Z,100297.68
2022-08-24T02:07:29.798Z,100296.77
2022-08-24T02:10:01.579Z,100296.75
2022-08-24T02:12:35.450Z,100302.98
2022-08-24T02:15:08.807Z,100299.86
2022-08-24T02:17:41.358Z,100306.05
2022-08-24T02:20:13.294Z,100304.30
2022-08-24T02:22:45.054Z,100303.38
2022-08-24T02:25:17.825Z,100306.48
2022-08-24T02:27:49.557Z,100306.03
2022-08-24T02:30:21.695Z,100304.30
2022-08-24T02:32:53.876Z,100314.51
2022-08-24T02:35:25.744Z,100309.19
2022-08-24T02:37:57.539Z,100304.73
2022-08-24T02:40:30.420Z,100308.70
2022-08-24T02:43:02.980Z,100309.16
2022-08-24T02:45:41.371Z,100310.02
2022-08-24T02:48:14.400Z,100308.68
2022-08-24T02:50:48.482Z,100318.00
2022-08-24T02:53:22.348Z,100316.23
2022-08-24T02:55:54.545Z,100318.88
2022-08-24T02:58:26.657Z,100321.08
2022-08-24T03:00:58.664Z,100311.73
2022-08-24T03:03:30.841Z,100322.82
2022-08-24T03:06:03.626Z,100320.56
2022-08-24T03:08:35.772Z,100317.42
2022-08-24T03:11:08.519Z,100317.84
2022-08-24T03:13:41.639Z,100319.14
2022-08-24T03:16:13.724Z,100312.89
2022-08-24T03:18:46.816Z,100315.16
2022-08-24T03:21:18.723Z,100315.59
2022-08-24T03:23:51.702Z,100320.92
2022-08-24T03:26:23.739Z,100320.94
2022-08-24T03:28:57.107Z,100316.08
2022-08-24T03:31:30.957Z,100331.21
2022-08-24T03:34:02.798Z,100330.33
2022-08-24T03:36:34.970Z,100324.16
2022-08-24T03:39:07.277Z,100325.52
2022-08-24T03:41:39.339Z,100328.63
2022-08-24T03:44:11.204Z,100329.16
2022-08-24T03:46:45.098Z,100331.87
2022-08-24T03:49:17.600Z,100331.51
2022-08-24T03:51:50.465Z,100327.61
2022-08-24T03:54:24.136Z,100329.38
2022-08-24T03:56:55.934Z,100332.51
2022-08-24T03:59:28.621Z,100337.84
2022-08-24T04:02:01.742Z,100332.08
2022-08-24T04:04:33.666Z,100331.69
2022-08-24T04:07:06.463Z,100331.70
2022-08-24T04:09:38.326Z,100332.59
2022-08-24T04:12:11.594Z,100331.28
2022-08-24T04:14:44.660Z,100333.97
2022-08-24T04:17:18.935Z,100330.41
2022-08-24T04:19:58.186Z,100334.87
2022-08-24T04:22:34.473Z,100337.99
2022-08-24T04:25:09.610Z,100334.00
2022-08-24T04:27:43.264Z,100337.10
2022-08-24T04:30:15.345Z,100331.80
2022-08-24T04:32:48.914Z,100330.45
2022-08-24T04:35:20.750Z,100333.13
2022-08-24T04:37:53.042Z,100333.16
2022-08-24T04:40:24.986Z,100334.50
2022-08-24T04:42:58.819Z,100334.52
2022-08-24T04:45:31.083Z,100330.98
2022-08-24T04:48:03.019Z,100334.55
2022-08-24T04:50:39.493Z,100333.70
2022-08-24T04:53:13.735Z,100332.39
2022-08-24T04:55:49.691Z,100331.52
2022-08-24T04:58:22.160Z,100335.09
2022-08-24T05:00:55.024Z,100330.29
2022-08-24T05:03:26.853Z,100328.55
2022-08-24T05:05:58.596Z,100325.47
2022-08-24T05:08:30.363Z,100324.63
2022-08-24T05:11:05.691Z,100329.99
2022-08-24T05:13:38.147Z,100328.23
2022-08-24T05:16:12.227Z,100322.00
2022-08-24T05:18:45.262Z,100322.02
2022-08-24T05:21:19.878Z,100330.95
2022-08-24T05:23:53.763Z,100324.75
2022-08-24T05:26:27.360Z,100334.52
2022-08-24T05:29:01.102Z,100333.19
2022-08-24T05:31:35.707Z,100327.84
2022-08-24T05:34:09.832Z,100330.97
2022-08-24T05:36:42.821Z,100330.97
2022-08-24T05:39:16.277Z,100314.89
2022-08-24T05:41:49.867Z,100316.22
2022-08-24T05:44:30.689Z,100311.34
2022-08-24T05:47:02.437Z,100312.20
2022-08-24T05:49:40.801Z,100315.73
2022-08-24T05:52:09.252Z,100306.81
2022-08-24T05:54:41.107Z,100315.25
2022-08-24T05:57:16.657Z,100314.80
2022-08-24T05:59:56.590Z,100311.64
2022-08-24T06:02:29.424Z,100314.30
2022-08-24T06:05:01.661Z,100309.80
2022-08-24T06:07:34.191Z,100312.45
2022-08-24T06:10:34.834Z,100303.52
2022-08-24T06:12:41.060Z,100309.30
2022-08-24T06:15:13.422Z,100309.25
2022-08-24T06:17:45.778Z,100309.69
2022-08-24T06:20:17.934Z,100297.14
2022-08-24T06:22:50.361Z,100300.67
2022-08-24T06:25:40.509Z,100305.98
2022-08-24T06:28:12.820Z,100309.03
2022-08-24T06:30:45.040Z,100304.95
2022-08-24T06:33:18.944Z,100307.16
2022-08-24T06:35:52.650Z,100312.89
2022-08-24T06:38:25.152Z,100303.05
2022-08-24T06:40:57.659Z,100300.78
2022-08-24T06:43:31.043Z,100302.05
2022-08-24T06:46:05.358Z,100309.56
2022-08-24T06:48:39.302Z,100304.63
2022-08-24T06:51:13.105Z,100310.36
2022-08-24T06:53:45.393Z,100303.62
2022-08-24T06:56:17.573Z,100300.89
2022-08-24T06:58:49.406Z,100308.88
2022-08-24T07:01:28.647Z,100301.66
2022-08-24T07:04:00.783Z,100303.42
2022-08-24T07:06:44.433Z,100304.71
2022-08-24T07:09:18.469Z,100304.22
2022-08-24T07:11:50.998Z,100301.02
2022-08-24T07:14:23.282Z,100308.13
2022-08-24T07:16:55.605Z,100306.27
2022-08-24T07:19:28.151Z,100303.97
2022-08-24T07:22:00.016Z,100298.97
2022-08-24T07:24:32.529Z,100299.80
2022-08-24T07:27:04.882Z,100305.58
2022-08-24T07:29:50.410Z,100307.77
2022-08-24T07:32:12.544Z,100301.91
2022-08-24T07:34:46.024Z,100308.55
2022-08-24T07:37:18.107Z,100295.51
2022-08-24T07:39:51.943Z,100295.00
2022-08-24T07:42:31.258Z,100297.19
2022-08-24T07:44:58.329Z,100294.87
2022-08-24T07:47:41.042Z,100293.89
2022-08-24T07:50:05.347Z,100282.17
2022-08-24T07:52:37.365Z,100290.19
2022-08-24T07:55:09.508Z,100286.55
2022-08-24T07:57:44.960Z,100278.01
2022-08-24T08:00:19.895Z,100288.23
2022-08-24T08:02:53.735Z,100282.39
2022-08-24T08:05:25.998Z,100300.19
2022-08-24T08:07:58.253Z,100283.61
2022-08-24T08:10:31.322Z,100288.02
2022-08-24T08:13:06.168Z,100292.92
2022-08-24T08:15:38.065Z,100291.06
2022-08-24T08:18:11.973Z,100281.14
2022-08-24T08:20:44.619Z,100285.97
2022-08-24T08:23:34.718Z,100280.55
2022-08-24T08:26:21.926Z,100288.13
2022-08-24T08:28:58.367Z,100283.97
2022-08-24T08:31:31.734Z,100282.14
2022-08-24T08:34:06.223Z,100288.75
2022-08-24T08:36:42.680Z,100282.85
2022-08-24T08:39:17.616Z,100287.70
2022-08-24T08:42:18.563Z,100272.42
2022-08-24T08:45:12.502Z,100280.44
2022-08-24T08:48:05.761Z,100280.84
2022-08-24T08:51:00.726Z,100282.20
2022-08-24T08:53:56.161Z,100270.04
2022-08-24T08:56:59.600Z,100275.83
2022-08-24T08:59:40.913Z,100270.34
2022-08-24T09:02:26.078Z,100271.51
2022-08-24T09:05:22.395Z,100275.89
2022-08-24T09:08:17.399Z,100268.67
2022-08-24T09:11:09.220Z,100270.90
2022-08-24T09:14:00.028Z,100260.48
2022-08-24T09:16:38.413Z,100264.90
2022-08-24T09:19:31.876Z,100257.67
2022-08-24T09:22:21.277Z,100253.14
2022-08-24T09:25:05.259Z,100254.89
2022-08-24T09:27:51.551Z,100254.36
2022-08-24T09:30:28.158Z,100254.70
2022-08-24T09:33:03.451Z,100254.20
2022-08-24T09:35:55.749Z,100259.98
2022-08-24T09:38:53.190Z,100252.28
2022-08-24T09:41:43.306Z,100255.38
2022-08-24T09:44:30.728Z,100245.39
2022-08-24T09:47:17.788Z,100245.70
2022-08-24T09:49:52.830Z,100258.15
2022-08-24T09:52:36.553Z,100256.27
2022-08-24T09:55:33.974Z,100256.64
2022-08-24T09:58:14.977Z,100239.50
2022-08-24T10:00:56.852Z,100242.94
2022-08-24T10:03:58.208Z,100251.78
2022-08-24T10:06:40.080Z,100256.63
2022-08-24T10:09:48.134Z,100249.34
2022-08-24T10:12:56.409Z,100254.19
2022-08-24T10:15:33.979Z,100249.56
2022-08-24T10:18:32.276Z,100252.62
2022-08-24T10:21:32.413Z,100241.27
2022-08-24T10:24:30.295Z,100236.75
2022-08-24T10:27:23.701Z,100234.34
2022-08-24T10:30:23.623Z,100240.92
2022-08-24T10:32:56.323Z,100243.11
2022-08-24T10:35:31.368Z,100236.80
2022-08-24T10:38:40.844Z,100244.30
2022-08-24T10:41:44.668Z,100232.05
2022-08-24T10:44:26.040Z,100231.86
2022-08-24T10:47:02.983Z,100234.86
2022-08-24T10:49:38.663Z,100231.70
2022-08-24T10:52:25.490Z,100236.13
2022-08-24T10:54:57.850Z,100239.19
2022-08-24T10:57:45.155Z,100227.09
2022-08-24T11:00:20.412Z,100224.36
2022-08-24T11:03:09.391Z,100226.55
2022-08-24T11:05:47.066Z,100217.55
2022-08-24T11:08:25.331Z,100213.89
2022-08-24T11:11:14.656Z,100222.38
2022-08-24T11:13:56.703Z,100227.28
2022-08-24T11:16:32.292Z,100221.38
2022-08-24T11:19:07.673Z,100215.47
2022-08-24T11:21:45.619Z,100212.29
2022-08-24T11:24:26.570Z,100207.25
2022-08-24T11:27:04.024Z,100208.99
2022-08-24T11:29:56.855Z,100216.61
2022-08-24T11:32:43.683Z,100205.73
2022-08-24T11:35:30.650Z,100214.16
2022-08-24T11:38:08.621Z,100206.47
2022-08-24T11:40:42.988Z,100199.73
2022-08-24T11:43:29.702Z,100206.39
2022-08-24T11:46:31.944Z,100201.42
2022-08-24T11:49:15.944Z,100200.03
2022-08-24T11:52:02.509Z,100196.77
2022-08-24T11:54:54.277Z,100199.34
2022-08-24T11:57:48.421Z,100199.29
2022-08-24T12:00:23.531Z,100190.23
2022-08-24T12:03:00.184Z,100198.69
2022-08-24T12:05:44.569Z,100201.77
2022-08-24T12:08:28.664Z,100187.36
2022-08-24T12:11:23.828Z,100189.97
2022-08-24T12:14:18.108Z,100196.23
2022-08-24T12:17:08.032Z,100186.75
2022-08-24T12:19:45.705Z,100191.18
2022-08-24T12:22:17.803Z,100192.48
2022-08-24T12:24:55.779Z,100191.05
2022-08-24T12:27:30.093Z,100180.69
2022-08-24T12:30:12.429Z,100171.25
2022-08-24T12:32:49.931Z,100174.28
2022-08-24T12:35:24.923Z,100178.23
2022-08-24T12:38:03.128Z,100179.94
2022-08-24T12:40:43.801Z,100178.49
2022-08-24T12:43:21.646Z,100170.30
2022-08-24T12:45:53.390Z,100184.64
2022-08-24T12:48:27.592Z,100182.30
2022-08-24T12:51:19.078Z,100176.80
2022-08-24T12:54:21.417Z,100172.70
2022-08-24T12:57:13.810Z,100176.27
2022-08-24T12:59:51.411Z,100179.78
2022-08-24T13:02:26.561Z,100173.86
2022-08-24T13:05:01.732Z,100174.69
2022-08-24T13:07:41.520Z,100168.84
2022-08-24T13:10:16.973Z,100166.53
2022-08-24T13:12:55.033Z,100160.69
2022-08-24T13:15:30.145Z,100167.44
2022-08-24T13:18:16.881Z,100166.58
2022-08-24T13:20:56.728Z,100161.70
2022-08-24T13:23:29.068Z,100156.73
2022-08-24T13:26:20.793Z,100153.98
2022-08-24T13:28:55.623Z,100168.36
2022-08-24T13:31:35.221Z,100165.19
2022-08-24T13:34:15.178Z,100163.78
2022-08-24T13:37:14.495Z,100173.66
2022-08-24T13:40:06.322Z,100166.91
2022-08-24T13:42:53.942Z,100156.94
2022-08-24T13:45:27.955Z,100164.06
2022-08-24T13:48:04.352Z,100163.59
2022-08-24T13:51:00.911Z,100165.77
2022-08-24T13:53:54.529Z,100164.41
2022-08-24T13:56:32.726Z,100156.31
2022-08-24T13:59:12.414Z,100156.27
2022-08-24T14:02:20.556Z,100147.77
2022-08-24T14:04:58.249Z,100159.44
2022-08-24T14:07:33.399Z,100156.79
2022-08-24T14:10:37.281Z,100147.39
2022-08-24T14:13:30.463Z,100156.84
2022-08-24T14:16:47.832Z,100146.56
2022-08-24T14:19:35.898Z,100154.23
2022-08-24T14:22:16.545Z,100143.91
2022-08-24T14:24:51.603Z,100153.84
2022-08-24T14:27:47.365Z,100142.19
2022-08-24T14:30:23.649Z,100150.77
2022-08-24T14:33:04.944Z,100148.11
2022-08-24T14:35:45.904Z,100157.13
2022-08-24T14:38:27.155Z,100142.38
2022-08-24T14:41:19.907Z,100141.13
2022-08-24T14:44:15.892Z,100137.66
2022-08-24T14:46:57.125Z,100135.10
2022-08-24T14:50:10.654Z,100141.47
2022-08-24T14:52:53.266Z,100146.53
2022-08-24T14:55:49.408Z,100143.06
2022-08-24T14:58:58.076Z,100144.85
2022-08-24T15:01:44.979Z,100143.11
2022-08-24T15:04:49.597Z,100140.41
2022-08-24T15:07:27.518Z,100140.70
2022-08-24T15:09:59.781Z,100145.14
2022-08-24T15:12:42.800Z,100142.44
2022-08-24T15:15:26.465Z,100137.66
2022-08-24T15:18:21.942Z,100139.25
2022-08-24T15:21:15.655Z,100134.61
2022-08-24T15:24:10.458Z,100140.33
2022-08-24T15:26:57.899Z,100145.13
2022-08-24T15:29:33.217Z,100143.14
2022-08-24T15:32:11.497Z,100147.41
2022-08-24T15:34:53.338Z,100151.19
2022-08-24T15:37:31.155Z,100149.19
2022-08-24T15:40:05.333Z,100140.44
2022-08-24T15:42:37.733Z,100142.91
2022-08-24T15:45:09.802Z,100141.30
2022-08-24T15:47:41.656Z,100146.49
2022-08-24T15:50:25.946Z,100149.36
2022-08-24T15:53:06.215Z,100153.68
2022-08-24T15:55:44.289Z,100153.91
2022-08-24T15:58:28.811Z,100145.19
2022-08-24T16:01:30.542Z,100153.53
2022-08-24T16:04:11.413Z,100158.30
2022-08-24T16:06:46.662Z,100152.34
2022-08-24T16:09:29.169Z,100155.78
2022-08-24T16:12:16.710Z,100159.19
2022-08-24T16:14:53.016Z,100160.30
2022-08-24T16:17:36.623Z,100159.69
2022-08-24T16:20:14.454Z,100158.53
2022-08-24T16:23:04.838Z,100161.04
2022-08-24T16:25:43.502Z,100159.03
2022-08-24T16:28:26.397Z,100153.90
2022-08-24T16:31:00.959Z,100149.23
2022-08-24T16:33:44.279Z,100151.61
2022-08-24T16:36:17.768Z,100156.28
2022-08-24T16:38:51.110Z,100156.03
2022-08-24T16:41:24.411Z,100153.53
2022-08-24T16:43:56.337Z,100156.41
2022-08-24T16:46:28.481Z,100157.88
2022-08-24T16:49:00.265Z,100162.95
2022-08-24T16:51:32.619Z,100159.94
2022-08-24T16:54:04.493Z,100162.30
2022-08-24T16:56:36.264Z,100173.15
2022-08-24T16:59:08.204Z,100166.98
2022-08-24T17:01:40.164Z,100173.34
2022-08-24T17:04:12.069Z,100173.44
2022-08-24T17:06:44.107Z,100171.28
2022-08-24T17:09:17.846Z,100173.58
2022-08-24T17:11:49.775Z,100178.57
2022-08-24T17:14:21.519Z,100175.04
2022-08-24T17:16:53.415Z,100182.71
2022-08-24T17:19:25.585Z,100180.05
2022-08-24T17:21:58.146Z,100183.67
2022-08-24T17:24:30.036Z,100185.55
2022-08-24T17:27:01.875Z,100186.06
2022-08-24T17:29:33.758Z,100187.47
2022-08-24T17:32:06.300Z,100183.97
2022-08-24T17:34:38.291Z,100184.91
2022-08-24T17:37:10.342Z,100179.16
2022-08-24T17:39:42.941Z,100187.70
2022-08-24T17:42:39.982Z,100182.86
2022-08-24T17:44:49.186Z,100178.91
2022-08-24T17:47:21.042Z,100179.41
2022-08-24T17:49:52.868Z,100184.33
2022-08-24T17:52:25.653Z,100179.48
2022-08-24T17:54:57.558Z,100182.22
2022-08-24T17:57:29.328Z,100181.38
2022-08-24T18:00:01.359Z,100176.48
2022-08-24T18:02:35.157Z,100177.44
2022-08-24T18:05:08.644Z,100178.80
2022-08-24T18:07:53.143Z,100182.39
2022-08-24T18:10:15.489Z,100182.87
2022-08-24T18:12:47.342Z,100180.23
2022-08-24T18:15:20.639Z,100182.94
2022-08-24T18:17:53.083Z,100182.55
2022-08-24T18:20:31.286Z,100176.32
2022-08-24T18:23:03.127Z,100177.70
2022-08-24T18:25:36.746Z,100179.08
2022-08-24T18:28:08.747Z,100175.97
2022-08-24T18:30:41.615Z,100176.88
2022-08-24T18:33:13.387Z,100172.88
2022-08-24T18:35:47.155Z,100174.70
2022-08-24T18:38:18.958Z,100171.59
2022-08-24T18:40:52.639Z,100168.08
2022-08-24T18:43:24.868Z,100161.41
2022-08-24T18:45:56.857Z,100161.02
2022-08-24T18:48:28.624Z,100159.70
2022-08-24T18:51:00.425Z,100160.60
2022-08-24T18:53:34.089Z,100158.83
2022-08-24T18:56:11.815Z,100161.98
2022-08-24T18:58:40.519Z,100162.45
2022-08-24T19:01:12.750Z,100155.33
2022-08-24T19:03:44.603Z,100158.94
2022-08-24T19:06:16.341Z,100154.94
2022-08-24T19:08:48.402Z,100154.95
2022-08-24T19:11:22.695Z,100152.30
2022-08-24T19:13:54.345Z,100156.77
2022-08-24T19:16:28.051Z,100155.45
2022-08-24T19:18:59.911Z,100154.11
2022-08-24T19:21:33.020Z,100150.98
2022-08-24T19:24:07.221Z,100149.20
2022-08-24T19:26:39.527Z,100155.47
2022-08-24T19:29:11.372Z,100153.27
2022-08-24T19:31:43.140Z,100150.16
2022-08-24T19:34:15.188Z,100146.61
2022-08-24T19:36:47.144Z,100150.17
2022-08-24T19:39:19.219Z,100147.06
2022-08-24T19:41:52.914Z,100148.86
2022-08-24T19:44:47.364Z,100145.73
2022-08-24T19:47:17.331Z,100146.20
2022-08-24T19:49:49.168Z,100140.87
2022-08-24T19:52:20.899Z,100146.22
2022-08-24T19:54:52.665Z,100143.55
2022-08-24T19:57:32.477Z,100143.14
2022-08-24T20:00:19.396Z,100144.91
2022-08-24T20:02:53.115Z,100145.83
2022-08-24T20:05:28.371Z,100145.39
2022-08-24T20:08:00.925Z,100146.30
2022-08-24T20:10:34.120Z,100149.41
2022-08-24T20:13:06.368Z,100143.19
2022-08-24T20:15:39.994Z,100148.08
2022-08-24T20:18:11.754Z,100146.30
2022-08-24T20:20:43.485Z,100149.84
2022-08-24T20:23:15.699Z,100151.18
2022-08-24T20:25:47.435Z,100150.76
2022-08-24T20:28:38.119Z,100153.85
2022-08-24T20:30:52.855Z,100152.52
2022-08-24T20:33:25.047Z,100149.84
2022-08-24T20:35:57.300Z,100149.88
2022-08-24T20:38:31.805Z,100152.09
2022-08-24T20:41:02.856Z,100149.43
2022-08-24T20:43:34.829Z,100150.31
2022-08-24T20:46:06.957Z,100144.97
2022-08-24T20:48:43.096Z,100156.09
2022-08-24T20:51:12.987Z,100151.22
2022-08-24T20:53:45.803Z,100147.66
2022-08-24T20:56:20.829Z,100146.33
2022-08-24T20:58:54.400Z,100146.33
2022-08-24T21:01:26.335Z,100143.66
2022-08-24T21:04:02.794Z,100146.74
2022-08-24T21:06:32.107Z,100146.75
2022-08-24T21:09:05.804Z,100135.66
2022-08-24T21:11:37.860Z,100138.75
2022-08-24T21:14:10.607Z,100140.98
2022-08-24T21:16:43.608Z,100140.98
2022-08-24T21:19:18.022Z,100135.65
2022-08-24T21:21:50.769Z,100142.31
2022-08-24T21:24:24.291Z,100141.86
2022-08-24T21:26:56.023Z,100144.52
2022-08-24T21:29:27.857Z,100138.30
2022-08-24T21:32:17.392Z,100140.52
2022-08-24T21:34:49.574Z,100136.52
2022-08-24T21:37:22.279Z,100140.47
2022-08-24T21:39:55.743Z,100133.81
2022-08-24T21:42:27.667Z,100138.30
2022-08-24T21:44:59.418Z,100138.77
2022-08-24T21:47:31.463Z,100140.52
2022-08-24T21:50:03.247Z,100141.84
2022-08-24T21:52:35.660Z,100140.52
2022-08-24T21:55:10.608Z,100137.84
2022-08-24T21:57:41.646Z,100132.05
2022-08-24T22:00:16.043Z,100133.39
2022-08-24T22:02:48.788Z,100131.59
2022-08-24T22:05:21.554Z,100133.80
2022-08-24T22:07:53.297Z,100132.48
2022-08-24T22:10:26.361Z,100133.36
2022-08-24T22:13:02.061Z,100128.89
2022-08-24T22:15:33.305Z,100121.81
2022-08-24T22:18:05.164Z,100122.69
2022-08-24T22:20:37.429Z,100121.35
2022-08-24T22:23:09.909Z,100121.34
2022-08-24T22:25:41.949Z,100125.34
2022-08-24T22:28:13.677Z,100118.67
2022-08-24T22:30:47.137Z,100129.78
2022-08-24T22:33:21.367Z,100124.45
2022-08-24T22:35:53.477Z,100122.66
2022-08-24T22:38:25.239Z,100119.55
2022-08-24T22:40:57.288Z,100123.09
2022-08-24T22:43:31.114Z,100117.75
2022-08-24T22:46:02.973Z,100128.86
2022-08-24T22:48:36.984Z,100129.73
2022-08-24T22:51:10.468Z,100127.05
2022-08-24T22:53:42.313Z,100137.26
2022-08-24T22:56:18.849Z,100139.90
2022-08-24T22:58:50.767Z,100140.75
2022-08-24T23:01:24.015Z,100147.38
2022-08-24T23:03:56.843Z,100150.45
2022-08-24T23:06:30.074Z,100145.97
2022-08-24T23:09:01.934Z,100149.94
2022-08-24T23:11:34.285Z,100150.37
2022-08-24T23:14:07.449Z,100155.23
2022-08-24T23:16:40.877Z,100151.64
2022-08-24T23:19:31.390Z,100159.20
2022-08-24T23:22:03.327Z,100154.71
2022-08-24T23:24:35.470Z,100160.48
2022-08-24T23:27:07.608Z,100159.55
2022-08-24T23:29:39.841Z,100161.31
2022-08-24T23:32:17.761Z,100156.89
2022-08-24T23:34:48.822Z,100160.86
2022-08-24T23:37:20.832Z,100159.06
2022-08-24T23:39:52.607Z,100155.91
2022-08-24T23:42:24.685Z,100155.48
2022-08-24T23:44:56.450Z,100151.94
2022-08-24T23:47:29.172Z,100146.63
2022-08-24T23:50:00.854Z,100149.77
2022-08-24T23:52:32.741Z,100155.54
2022-08-24T23:55:20.063Z,100147.56
2022-08-24T23:57:39.884Z,100149.30
